Flight Track Log - Related Links

Times and Time Zones

All times are in EDT time to prevent confusion due to time zone crossing. See the N606KR flight status page for this flight to view local times or setup timezone preferences in your user account.

Time Position Orientation Groundspeed Altitude Reporting Facility
EDT Latitude Longitude Course Direction KTS MPH feet Rate Location/Type
Thu 05:58:58 PM 42.2494 -83.5231 297° West 142 163 1,300  Level Cleveland Center
Thu 06:00:18 PM 42.2769 -83.5972 297° West 180 207 4,300 2,219 Climbing Cleveland Center
Thu 06:01:24 PM 42.2917 -83.6625 287° West 169 194 6,700 2,143 Climbing Cleveland Center
Thu 06:02:24 PM 42.2453 -83.6883 202° Southwest 181 208 8,800 1,949 Climbing Cleveland Center
Thu 06:03:21 PM 42.2008 -83.7058 196° South 192 221 10,500 1,678 Climbing Cleveland Center
Thu 06:04:22 PM 42.1558 -83.6811 158° South 198 228 12,100 1,220 Climbing Cleveland Center
Thu 06:05:24 PM 42.1678 -83.6172 76° East 213 245 13,000 443 Climbing Cleveland Center
Thu 06:06:24 PM 42.1789 -83.5197 81° East 244 281 13,000 100 Level Cleveland Center
Thu 06:07:24 PM 42.2003 -83.4114 75° East 281 323 13,200 250 Climbing Cleveland Center
Thu 06:08:24 PM 42.2194 -83.3028 77° East 297 342 13,500 450 Climbing Cleveland Center
Thu 06:09:24 PM 42.2428 -83.1972 73° East 297 342 14,100 500 Climbing Cleveland Center
Thu 06:10:24 PM 42.2556 -83.0911 81° East 292 336 14,500 400 Climbing Cleveland Center
Thu 06:11:24 PM 42.2478 -82.9758 95° East 292 336 14,900 550 Climbing Cleveland Center
Thu 06:12:24 PM 42.2353 -82.8661 99° East 292 336 15,600 900 Climbing Cleveland Center
Thu 06:13:24 PM 42.2311 -82.7592 93° East 292 336 16,700 950 Climbing Cleveland Center
Thu 06:14:24 PM 42.2269 -82.6553 93° East 287 330 17,500 750 Climbing Cleveland Center
Thu 06:15:24 PM 42.2183 -82.5514 96° East 282 325 18,200 700 Climbing Cleveland Center
Thu 06:16:24 PM 42.2136 -82.4475 93° East 282 325 18,900 700 Climbing Cleveland Center
Thu 06:17:24 PM 42.2092 -82.3381 93° East 282 325 19,600 650 Climbing Cleveland Center
Thu 06:18:24 PM 42.2003 -82.2314 96° East 282 325 20,200 600 Climbing Cleveland Center
Thu 06:19:24 PM 42.1936 -82.1106 94° East 289 333 20,800 500 Climbing Cleveland Center
Thu 06:20:24 PM 42.1886 -82.0094 94° East 289 333 21,200 450 Climbing Cleveland Center
Thu 06:21:24 PM 42.1839 -81.8972 93° East 299 344 21,700 600 Climbing Cleveland Center
Thu 06:22:24 PM 42.1767 -81.7850 95° East 291 335 22,400 600 Climbing Cleveland Center
Thu 06:23:24 PM 42.1736 -81.6731 92° East 291 335 22,900 600 Climbing Cleveland Center
Thu 06:24:24 PM 42.1683 -81.5608 94° East 296 341 23,600 550 Climbing Cleveland Center
Thu 06:25:24 PM 42.1631 -81.4458 94° East 296 341 24,000 400 Climbing Cleveland Center
Thu 06:26:24 PM 42.1536 -81.3197 96° East 296 341 24,400 450 Climbing Cleveland Center
Thu 06:27:24 PM 42.1481 -81.2019 94° East 302 348 24,900 400 Climbing Cleveland Center
Thu 06:28:24 PM 42.1381 -81.0844 97° East 310 357 25,200 350 Climbing Cleveland Center
Thu 06:29:24 PM 42.1239 -80.9667 99° East 316 364 25,600 350 Climbing Cleveland Center
Thu 06:30:24 PM 42.1078 -80.8492 100° East 316 364 25,900 300 Climbing Cleveland Center
Thu 06:31:24 PM 42.0994 -80.7286 95° East 321 369 26,200 300 Climbing Cleveland Center
Thu 06:32:24 PM 42.0933 -80.6028 94° East 328 377 26,500 300 Climbing Cleveland Center
Thu 06:33:24 PM 42.0850 -80.4769 95° East 333 383 26,800 200 Climbing Cleveland Center
Thu 06:34:24 PM 42.0806 -80.3678 93° East 333 383 26,900 100 Climbing Cleveland Center
Thu 06:35:24 PM 42.0700 -80.2419 96° East 333 383 27,000 50 Climbing Cleveland Center
Thu 06:36:24 PM 42.0569 -80.1133 98° East 333 383 27,000  Level Cleveland Center
Thu 06:37:24 PM 42.0481 -79.9681 95° East 340 391 27,000  Level Cleveland Center
Thu 06:38:24 PM 42.0389 -79.8394 95° East 346 398 27,000  Level Cleveland Center
Thu 06:39:24 PM 42.0297 -79.7083 95° East 346 398 27,000  Level Cleveland Center
Thu 06:40:24 PM 42.0181 -79.5797 97° East 346 398 27,000  Level Cleveland Center
Thu 06:41:24 PM 42.0067 -79.4514 97° East 351 404 27,000  Level Cleveland Center
Thu 06:42:24 PM 41.9947 -79.3203 97° East 351 404 27,000  Level Cleveland Center
Thu 06:43:24 PM 41.9892 -79.1864 93° East 351 404 27,000  Level Cleveland Center
Thu 06:44:24 PM 41.9792 -79.0581 96° East 351 404 27,000  Level Cleveland Center
Thu 06:45:24 PM 41.9669 -78.9272 97° East 351 404 27,000  Level Cleveland Center
Thu 06:46:24 PM 41.9544 -78.7961 97° East 351 404 27,000  Level Cleveland Center
Thu 06:47:24 PM 41.9419 -78.6653 97° East 351 404 27,000  Level Cleveland Center
Thu 06:48:24 PM 41.9292 -78.5317 97° East 351 404 27,000  Level Cleveland Center
Thu 06:50:39 PM 41.9067 -78.2511 96° East 355 409 27,000  Level New York Center
Thu 06:51:40 PM 41.8939 -78.1214 97° East 355 409 27,000  Level New York Center
Thu 06:52:41 PM 41.8789 -77.9917 99° East 355 409 27,000  Level New York Center
Thu 06:53:41 PM 41.8661 -77.8592 97° East 355 409 27,000  Level New York Center
Thu 06:54:38 PM 41.8489 -77.7267 100° East 355 409 27,000  Level New York Center
Thu 06:55:39 PM 41.8161 -77.6089 110° East 355 409 27,000  Level New York Center
Thu 06:56:41 PM 41.7639 -77.5008 123° Southeast 340 391 27,000  Level New York Center
Thu 06:57:41 PM 41.7289 -77.3833 112° Southeast 340 391 27,000  Level New York Center
Thu 06:58:41 PM 41.6983 -77.2578 108° East 340 391 27,000  Level New York Center
Thu 06:59:39 PM 41.6697 -77.1331 107° East 345 397 27,000  Level New York Center
Thu 07:00:40 PM 41.6367 -77.0103 110° East 345 397 27,000  Level New York Center
Thu 07:01:38 PM 41.6022 -76.8686 108° East 357 411 27,000  Level New York Center
Thu 07:02:39 PM 41.5689 -76.7489 110° East 352 405 27,000  Level New York Center
Thu 07:03:40 PM 41.5389 -76.6381 110° East 352 405 27,000  Level New York Center
Thu 07:04:40 PM 41.5033 -76.5133 111° Southeast 352 405 27,000  Level New York Center
Thu 07:05:41 PM 41.4717 -76.3914 109° East 352 405 27,000  Level New York Center
Thu 07:06:41 PM 41.4344 -76.2528 110° East 358 412 27,000 -305 Level New York Center
Thu 07:07:39 PM 41.3983 -76.1281 111° Southeast 358 412 26,400 -814 Descending New York Center
Thu 07:08:39 PM 41.3583 -76.0006 113° Southeast 363 418 25,400 -1,000 Descending New York Center
Thu 07:09:39 PM 41.3203 -75.8706 111° Southeast 363 418 24,400 -992 Descending New York Center
Thu 07:10:40 PM 41.2758 -75.7400 114° Southeast 368 423 23,400 -984 Descending New York Center
Thu 07:11:41 PM 41.2378 -75.6022 110° East 381 438 22,400 -908 Descending New York Center
Thu 07:12:39 PM 41.1992 -75.4725 112° Southeast 381 438 21,600 -712 Descending New York Center
Thu 07:13:39 PM 41.1583 -75.3483 114° Southeast 376 433 21,000 -298 Descending New York Center
Thu 07:14:40 PM 41.1172 -75.2244 114° Southeast 365 420 21,000  Level New York Center
Thu 07:15:41 PM 41.0756 -75.1089 116° Southeast 354 407 21,000  Level New York Center
Thu 07:16:39 PM 41.0342 -74.9906 115° Southeast 343 395 21,000  Level New York Center
Thu 07:17:40 PM 40.9983 -74.8839 114° Southeast 343 395 21,000  Level New York Center
Thu 07:18:40 PM 40.9606 -74.7664 113° Southeast 343 395 21,000  Level New York Center
Thu 07:19:39 PM 40.9481 -74.6419 98° East 349 402 21,000 -200 Level New York Center
Thu 07:20:40 PM 40.9439 -74.5125 92° East 341 392 20,600 -639 Descending New York Center
Thu 07:21:41 PM 40.9336 -74.3775 96° East 351 404 19,700 -800 Descending New York Center
Thu 07:22:40 PM 40.9128 -74.2364 101° East 363 418 19,000 -470 Descending New York Center
Thu 07:23:36 PM 40.8333 -74.1500 141° Southeast 340 391 18,800 -569 Descending New York TRACON
Thu 07:24:36 PM 40.7667 -74.0667 137° Southeast 348 400 17,900 -1,150 Descending New York TRACON
Thu 07:25:36 PM 40.6833 -74.0000 149° Southeast 341 392 16,500 -1,300 Descending New York TRACON
Thu 07:26:36 PM 40.6167 -73.9333 143° Southeast 337 388 15,300 -1,869 Descending New York TRACON
Thu 07:28:39 PM 40.5267 -73.7281 120° Southeast 314 361 10,800 -2,262 Descending New York Center
Thu 07:29:39 PM 40.4917 -73.6339 116° Southeast 301 346 8,400 -1,436 Descending New York Center
Thu 07:30:36 PM 40.4833 -73.5500 97° East 279 321 8,000 -1,424 Descending New York TRACON
Thu 07:32:36 PM 40.6000 -73.4500 33° Northeast 237 273 4,200 -1,667 Descending New York TRACON
Thu 07:33:36 PM 40.6667 -73.4333 11° North 220 253 3,000 -550 Descending New York TRACON
Thu 07:34:36 PM 40.7167 -73.4500 346° North 220 253 3,100 -217 Climbing New York TRACON
Thu 07:36:00 PM 40.6842 -73.5892 253° West  Level Estimated
Thu 07:39:36 PM 40.7167 -73.7000 72° East 140 161 1,700  Level New York TRACON
Thu 07:40:36 PM 40.6833 -73.7167 201° Southwest 126 145 1,000 -700 Descending New York TRACON
Thu 07:42:00 PM 40.6333 -73.7667 298° West  Level FlightAware Approximate
Thu 07:43:00 PM 40.6398 -73.7789 253° West  Level Estimated
Thu 07:44:00 PM 40.6398 -73.7789 72° East  Level Estimated
Thu 07:45:00 PM 40.6398 -73.7789 72° East  Level Estimated
Thu 07:49:00 PM 40.6398 -73.7789 298° West  Level Estimated
Thu 07:50:00 PM 40.6398 -73.7789 298° West  Level Estimated

Login

Don't have an account? Register now (free) for customized features, flight alerts, and more!